sensor_id;sensor_type;location;lat;lon;timestamp;pressure;altitude;pressure_sealevel;temperature
51693;BMP280;37777;53.066;21.638;2024-02-16T00:03:15;101184.34;;;6.38
51693;BMP280;37777;53.066;21.638;2024-02-16T00:10:16;101175.25;;;6.33
51693;BMP280;37777;53.066;21.638;2024-02-16T00:17:20;101173.59;;;6.38
51693;BMP280;37777;53.066;21.638;2024-02-16T00:24:22;101175.38;;;6.42
51693;BMP280;37777;53.066;21.638;2024-02-16T00:31:24;101176.47;;;6.41
51693;BMP280;37777;53.066;21.638;2024-02-16T00:38:25;101181.56;;;6.43
51693;BMP280;37777;53.066;21.638;2024-02-16T00:45:27;101181.56;;;6.43
51693;BMP280;37777;53.066;21.638;2024-02-16T00:52:28;101175.09;;;6.44
51693;BMP280;37777;53.066;21.638;2024-02-16T00:59:30;101173.50;;;6.43
51693;BMP280;37777;53.066;21.638;2024-02-16T01:06:32;101166.53;;;6.42
51693;BMP280;37777;53.066;21.638;2024-02-16T01:13:34;101165.41;;;6.43
51693;BMP280;37777;53.066;21.638;2024-02-16T01:20:36;101160.88;;;6.43
51693;BMP280;37777;53.066;21.638;2024-02-16T01:27:37;101160.66;;;6.40
51693;BMP280;37777;53.066;21.638;2024-02-16T01:34:39;101173.78;;;6.41
51693;BMP280;37777;53.066;21.638;2024-02-16T01:41:41;101166.03;;;6.40
51693;BMP280;37777;53.066;21.638;2024-02-16T01:48:42;101166.63;;;6.37
51693;BMP280;37777;53.066;21.638;2024-02-16T02:04:07;101160.31;;;6.27
51693;BMP280;37777;53.066;21.638;2024-02-16T02:11:09;101164.16;;;6.21
51693;BMP280;37777;53.066;21.638;2024-02-16T02:18:10;101149.19;;;6.15
51693;BMP280;37777;53.066;21.638;2024-02-16T02:25:12;101164.31;;;6.11
51693;BMP280;37777;53.066;21.638;2024-02-16T02:32:14;101161.44;;;6.07
51693;BMP280;37777;53.066;21.638;2024-02-16T02:39:15;101153.50;;;5.97
51693;BMP280;37777;53.066;21.638;2024-02-16T02:46:17;101158.66;;;5.93
51693;BMP280;37777;53.066;21.638;2024-02-16T02:53:18;101157.63;;;5.89
51693;BMP280;37777;53.066;21.638;2024-02-16T03:00:20;101161.19;;;5.85
51693;BMP280;37777;53.066;21.638;2024-02-16T03:07:22;101159.28;;;5.85
51693;BMP280;37777;53.066;21.638;2024-02-16T03:14:23;101170.63;;;5.82
51693;BMP280;37777;53.066;21.638;2024-02-16T03:21:46;101166.63;;;5.79
51693;BMP280;37777;53.066;21.638;2024-02-16T03:28:48;101164.22;;;5.78
51693;BMP280;37777;53.066;21.638;2024-02-16T03:44:32;101157.06;;;5.68
51693;BMP280;37777;53.066;21.638;2024-02-16T03:51:33;101155.78;;;5.66
51693;BMP280;37777;53.066;21.638;2024-02-16T03:58:36;101154.25;;;5.59
51693;BMP280;37777;53.066;21.638;2024-02-16T04:22:02;101153.31;;;5.50
51693;BMP280;37777;53.066;21.638;2024-02-16T04:29:04;101156.00;;;5.50
51693;BMP280;37777;53.066;21.638;2024-02-16T04:36:07;101158.06;;;5.53
51693;BMP280;37777;53.066;21.638;2024-02-16T04:43:09;101152.19;;;5.51
51693;BMP280;37777;53.066;21.638;2024-02-16T04:50:10;101157.53;;;5.51
51693;BMP280;37777;53.066;21.638;2024-02-16T04:57:12;101168.00;;;5.53
51693;BMP280;37777;53.066;21.638;2024-02-16T05:04:14;101166.75;;;5.50
51693;BMP280;37777;53.066;21.638;2024-02-16T05:19:40;101166.75;;;5.50
51693;BMP280;37777;53.066;21.638;2024-02-16T05:26:41;101173.19;;;5.49
51693;BMP280;37777;53.066;21.638;2024-02-16T05:33:44;101171.28;;;5.50
51693;BMP280;37777;53.066;21.638;2024-02-16T05:49:08;101179.56;;;5.53
51693;BMP280;37777;53.066;21.638;2024-02-16T05:56:11;101185.16;;;5.57
51693;BMP280;37777;53.066;21.638;2024-02-16T06:03:13;101185.94;;;5.57
51693;BMP280;37777;53.066;21.638;2024-02-16T06:10:15;101190.78;;;5.55
51693;BMP280;37777;53.066;21.638;2024-02-16T06:17:16;101198.34;;;5.53
51693;BMP280;37777;53.066;21.638;2024-02-16T06:24:18;101196.75;;;5.52
51693;BMP280;37777;53.066;21.638;2024-02-16T06:31:20;101213.94;;;5.51
51693;BMP280;37777;53.066;21.638;2024-02-16T06:46:44;101228.88;;;5.62
51693;BMP280;37777;53.066;21.638;2024-02-16T06:53:45;101221.25;;;5.70
51693;BMP280;37777;53.066;21.638;2024-02-16T07:00:47;101219.03;;;5.77
51693;BMP280;37777;53.066;21.638;2024-02-16T07:07:49;101225.91;;;5.83
51693;BMP280;37777;53.066;21.638;2024-02-16T07:15:04;101221.81;;;5.91
51693;BMP280;37777;53.066;21.638;2024-02-16T07:22:06;101228.72;;;5.97
51693;BMP280;37777;53.066;21.638;2024-02-16T07:29:08;101235.34;;;6.05
51693;BMP280;37777;53.066;21.638;2024-02-16T07:36:09;101239.84;;;6.09
51693;BMP280;37777;53.066;21.638;2024-02-16T07:51:40;101233.47;;;6.24
51693;BMP280;37777;53.066;21.638;2024-02-16T07:58:41;101234.91;;;6.36
51693;BMP280;37777;53.066;21.638;2024-02-16T08:05:45;101220.31;;;6.42
51693;BMP280;37777;53.066;21.638;2024-02-16T08:12:48;101226.66;;;6.51
51693;BMP280;37777;53.066;21.638;2024-02-16T08:28:11;101217.53;;;7.13
51693;BMP280;37777;53.066;21.638;2024-02-16T08:35:13;101211.44;;;7.21
51693;BMP280;37777;53.066;21.638;2024-02-16T09:08:00;101213.56;;;8.02
51693;BMP280;37777;53.066;21.638;2024-02-16T09:15:01;101208.06;;;8.30
51693;BMP280;37777;53.066;21.638;2024-02-16T09:22:03;101192.81;;;8.25
51693;BMP280;37777;53.066;21.638;2024-02-16T09:29:08;101185.03;;;8.46
51693;BMP280;37777;53.066;21.638;2024-02-16T09:36:09;101190.88;;;8.71
51693;BMP280;37777;53.066;21.638;2024-02-16T09:43:25;101193.38;;;8.90
51693;BMP280;37777;53.066;21.638;2024-02-16T10:15:47;101171.50;;;9.67
51693;BMP280;37777;53.066;21.638;2024-02-16T10:22:49;101171.19;;;9.77
51693;BMP280;37777;53.066;21.638;2024-02-16T10:29:53;101159.09;;;9.92
51693;BMP280;37777;53.066;21.638;2024-02-16T10:45:17;101137.72;;;10.25
51693;BMP280;37777;53.066;21.638;2024-02-16T10:52:20;101130.25;;;10.31
51693;BMP280;37777;53.066;21.638;2024-02-16T11:16:17;101103.28;;;10.82
51693;BMP280;37777;53.066;21.638;2024-02-16T11:23:27;101094.41;;;11.03
51693;BMP280;37777;53.066;21.638;2024-02-16T11:30:33;101078.31;;;11.06
51693;BMP280;37777;53.066;21.638;2024-02-16T11:37:35;101065.75;;;11.23
51693;BMP280;37777;53.066;21.638;2024-02-16T11:44:38;101064.22;;;11.34
51693;BMP280;37777;53.066;21.638;2024-02-16T11:51:42;101056.59;;;11.48
51693;BMP280;37777;53.066;21.638;2024-02-16T12:15:28;101036.56;;;11.62
51693;BMP280;37777;53.066;21.638;2024-02-16T12:22:30;101024.69;;;11.66
51693;BMP280;37777;53.066;21.638;2024-02-16T12:29:31;101025.97;;;11.81
51693;BMP280;37777;53.066;21.638;2024-02-16T12:36:34;101028.34;;;11.83
51693;BMP280;37777;53.066;21.638;2024-02-16T12:43:36;101014.34;;;11.81
51693;BMP280;37777;53.066;21.638;2024-02-16T12:50:37;101004.19;;;11.90
51693;BMP280;37777;53.066;21.638;2024-02-16T12:57:41;101009.06;;;11.84
51693;BMP280;37777;53.066;21.638;2024-02-16T13:04:42;101002.94;;;11.87
51693;BMP280;37777;53.066;21.638;2024-02-16T13:11:44;101000.03;;;11.93
51693;BMP280;37777;53.066;21.638;2024-02-16T13:18:46;100990.63;;;11.90
51693;BMP280;37777;53.066;21.638;2024-02-16T13:34:10;100977.75;;;11.87
51693;BMP280;37777;53.066;21.638;2024-02-16T13:41:11;100978.97;;;11.89
51693;BMP280;37777;53.066;21.638;2024-02-16T13:56:47;100973.13;;;11.75
51693;BMP280;37777;53.066;21.638;2024-02-16T14:03:50;100957.97;;;11.74
51693;BMP280;37777;53.066;21.638;2024-02-16T14:10:52;100961.25;;;11.67
51693;BMP280;37777;53.066;21.638;2024-02-16T14:34:19;100948.75;;;11.42
51693;BMP280;37777;53.066;21.638;2024-02-16T14:41:23;100952.34;;;11.33
51693;BMP280;37777;53.066;21.638;2024-02-16T14:48:25;100943.72;;;11.19
51693;BMP280;37777;53.066;21.638;2024-02-16T14:55:27;100932.72;;;11.03
51693;BMP280;37777;53.066;21.638;2024-02-16T15:02:28;100914.44;;;10.79
51693;BMP280;37777;53.066;21.638;2024-02-16T15:09:30;100908.06;;;10.63
51693;BMP280;37777;53.066;21.638;2024-02-16T15:16:33;100911.88;;;10.40
51693;BMP280;37777;53.066;21.638;2024-02-16T15:23:34;100907.50;;;10.27
51693;BMP280;37777;53.066;21.638;2024-02-16T15:30:36;100897.31;;;10.03
51693;BMP280;37777;53.066;21.638;2024-02-16T15:37:37;100895.81;;;9.84
51693;BMP280;37777;53.066;21.638;2024-02-16T15:44:39;100892.84;;;9.68
51693;BMP280;37777;53.066;21.638;2024-02-16T15:51:59;100900.22;;;9.50
51693;BMP280;37777;53.066;21.638;2024-02-16T15:59:00;100906.13;;;9.35
51693;BMP280;37777;53.066;21.638;2024-02-16T16:06:03;100896.94;;;9.18
51693;BMP280;37777;53.066;21.638;2024-02-16T16:13:05;100893.47;;;9.01
51693;BMP280;37777;53.066;21.638;2024-02-16T16:20:09;100901.56;;;8.92
51693;BMP280;37777;53.066;21.638;2024-02-16T16:27:11;100909.97;;;8.81
51693;BMP280;37777;53.066;21.638;2024-02-16T16:34:14;100905.06;;;8.75
51693;BMP280;37777;53.066;21.638;2024-02-16T16:41:15;100894.56;;;8.64
51693;BMP280;37777;53.066;21.638;2024-02-16T16:48:17;100904.41;;;8.52
51693;BMP280;37777;53.066;21.638;2024-02-16T16:55:19;100901.69;;;8.43
51693;BMP280;37777;53.066;21.638;2024-02-16T17:02:20;100897.84;;;8.35
51693;BMP280;37777;53.066;21.638;2024-02-16T17:09:22;100907.81;;;8.26
51693;BMP280;37777;53.066;21.638;2024-02-16T17:16:23;100924.59;;;8.23
51693;BMP280;37777;53.066;21.638;2024-02-16T17:23:25;100929.84;;;8.19
51693;BMP280;37777;53.066;21.638;2024-02-16T17:30:27;100940.31;;;8.21
51693;BMP280;37777;53.066;21.638;2024-02-16T17:37:28;100927.44;;;8.09
51693;BMP280;37777;53.066;21.638;2024-02-16T17:44:30;100919.16;;;8.05
51693;BMP280;37777;53.066;21.638;2024-02-16T17:51:31;100928.03;;;7.97
51693;BMP280;37777;53.066;21.638;2024-02-16T17:58:33;100920.38;;;7.90
51693;BMP280;37777;53.066;21.638;2024-02-16T18:05:34;100916.41;;;7.88
51693;BMP280;37777;53.066;21.638;2024-02-16T18:12:36;100914.31;;;7.85
51693;BMP280;37777;53.066;21.638;2024-02-16T18:19:39;100914.28;;;7.76
51693;BMP280;37777;53.066;21.638;2024-02-16T18:26:41;100916.91;;;7.67
51693;BMP280;37777;53.066;21.638;2024-02-16T18:33:42;100913.25;;;7.63
51693;BMP280;37777;53.066;21.638;2024-02-16T18:40:44;100909.91;;;7.57
51693;BMP280;37777;53.066;21.638;2024-02-16T18:47:46;100896.38;;;7.49
51693;BMP280;37777;53.066;21.638;2024-02-16T18:54:48;100899.69;;;7.46
51693;BMP280;37777;53.066;21.638;2024-02-16T19:01:50;100902.53;;;7.41
51693;BMP280;37777;53.066;21.638;2024-02-16T19:08:52;100900.13;;;7.39
51693;BMP280;37777;53.066;21.638;2024-02-16T19:15:53;100899.91;;;7.27
51693;BMP280;37777;53.066;21.638;2024-02-16T19:22:57;100906.06;;;7.27
51693;BMP280;37777;53.066;21.638;2024-02-16T19:29:59;100904.00;;;7.24
51693;BMP280;37777;53.066;21.638;2024-02-16T19:37:14;100890.53;;;7.24
51693;BMP280;37777;53.066;21.638;2024-02-16T19:44:16;100903.38;;;7.27
51693;BMP280;37777;53.066;21.638;2024-02-16T19:51:22;100906.16;;;7.22
51693;BMP280;37777;53.066;21.638;2024-02-16T19:58:24;100895.41;;;7.22
51693;BMP280;37777;53.066;21.638;2024-02-16T20:05:27;100891.84;;;7.13
51693;BMP280;37777;53.066;21.638;2024-02-16T20:12:31;100895.16;;;7.10
51693;BMP280;37777;53.066;21.638;2024-02-16T20:19:33;100896.25;;;7.09
51693;BMP280;37777;53.066;21.638;2024-02-16T20:26:34;100885.19;;;7.10
51693;BMP280;37777;53.066;21.638;2024-02-16T20:33:36;100898.84;;;7.14
51693;BMP280;37777;53.066;21.638;2024-02-16T20:40:38;100893.25;;;7.10
51693;BMP280;37777;53.066;21.638;2024-02-16T20:47:39;100881.53;;;7.06
51693;BMP280;37777;53.066;21.638;2024-02-16T21:03:02;100868.19;;;7.01
51693;BMP280;37777;53.066;21.638;2024-02-16T21:10:05;100859.81;;;7.02
51693;BMP280;37777;53.066;21.638;2024-02-16T21:25:30;100844.88;;;6.96
51693;BMP280;37777;53.066;21.638;2024-02-16T21:32:32;100843.63;;;6.94
51693;BMP280;37777;53.066;21.638;2024-02-16T21:39:34;100844.03;;;6.87
51693;BMP280;37777;53.066;21.638;2024-02-16T21:46:35;100835.16;;;6.86
51693;BMP280;37777;53.066;21.638;2024-02-16T21:53:37;100829.28;;;6.84
51693;BMP280;37777;53.066;21.638;2024-02-16T22:00:38;100831.00;;;6.80
51693;BMP280;37777;53.066;21.638;2024-02-16T22:07:40;100820.84;;;6.77
51693;BMP280;37777;53.066;21.638;2024-02-16T22:14:42;100819.53;;;6.75
51693;BMP280;37777;53.066;21.638;2024-02-16T22:21:43;100821.66;;;6.78
51693;BMP280;37777;53.066;21.638;2024-02-16T22:28:45;100813.03;;;6.67
51693;BMP280;37777;53.066;21.638;2024-02-16T22:35:47;100803.47;;;6.61
51693;BMP280;37777;53.066;21.638;2024-02-16T22:42:49;100801.88;;;6.60
51693;BMP280;37777;53.066;21.638;2024-02-16T22:49:50;100785.69;;;6.51
51693;BMP280;37777;53.066;21.638;2024-02-16T22:56:52;100786.25;;;6.48
51693;BMP280;37777;53.066;21.638;2024-02-16T23:03:54;100767.53;;;6.43
51693;BMP280;37777;53.066;21.638;2024-02-16T23:10:57;100772.56;;;6.36
51693;BMP280;37777;53.066;21.638;2024-02-16T23:17:59;100768.38;;;6.29
51693;BMP280;37777;53.066;21.638;2024-02-16T23:25:00;100764.59;;;6.30
51693;BMP280;37777;53.066;21.638;2024-02-16T23:32:02;100758.06;;;6.23
51693;BMP280;37777;53.066;21.638;2024-02-16T23:39:04;100747.22;;;6.14
51693;BMP280;37777;53.066;21.638;2024-02-16T23:46:08;100749.59;;;6.15
